Terminal Aerodrome Forecast
Issued by NWS

Home | Current Version | Previous Version | Text Only | Print | Product List | Glossary On
Versions: 1 2 3 4 5 6 7 8 9 10 11 12
774
FTUS45 KMSO 261720
TAFSMN
TAF
KSMN 261720Z 2618/2718 00000KT P6SM SKC
     FM262100 27010G20KT P6SM SCT100
     FM270000 30015G25KT P6SM -SHRA SCT070 BKN100
     FM270600 VRB06G35KT P6SM -TSRA SCT070CB BKN100
     FM270800 31007KT P6SM -SHRA BKN080
      AMD LTD TO CLD VIS AND WIND=

USA.gov is the U.S. government's official web portal to all federal, state and local government web resources and services.